createdAt,value
2022-08-05T00:02:07.731Z,3.30
2022-08-05T00:07:27.052Z,3.30
2022-08-05T00:10:02.990Z,3.70
2022-08-05T00:12:33.378Z,3.90
2022-08-05T00:15:57.667Z,3.40
2022-08-05T00:18:08.899Z,3.40
2022-08-05T00:20:51.900Z,4.20
2022-08-05T00:23:44.702Z,3.90
2022-08-05T00:26:17.378Z,3.40
2022-08-05T00:28:47.655Z,3.50
2022-08-05T00:31:53.317Z,3.50
2022-08-05T00:34:55.635Z,3.50
2022-08-05T00:37:09.766Z,4.40
2022-08-05T00:39:58.778Z,3.50
2022-08-05T00:42:33.222Z,3.50
2022-08-05T00:45:11.477Z,3.90
2022-08-05T00:47:56.380Z,3.40
2022-08-05T00:50:28.138Z,3.40
2022-08-05T00:52:58.457Z,3.60
2022-08-05T00:55:33.985Z,3.50
2022-08-05T00:58:13.737Z,3.50
2022-08-05T01:00:44.026Z,3.60
2022-08-05T01:03:22.892Z,3.70
2022-08-05T01:05:54.813Z,3.60
2022-08-05T01:08:40.453Z,3.70
2022-08-05T01:11:24.253Z,4.20
2022-08-05T01:14:11.737Z,3.90
2022-08-05T01:16:52.279Z,3.80
2022-08-05T01:20:00.995Z,4.20
2022-08-05T01:22:39.672Z,4.20
2022-08-05T01:25:40.922Z,4.60
2022-08-05T01:28:31.898Z,4.20
2022-08-05T01:31:10.142Z,3.80
2022-08-05T01:33:49.331Z,4.50
2022-08-05T01:36:29.939Z,4.60
2022-08-05T01:39:01.532Z,4.30
2022-08-05T01:41:37.591Z,4.60
2022-08-05T01:44:09.840Z,4.70
2022-08-05T01:46:46.277Z,4.70
2022-08-05T01:49:24.418Z,4.70
2022-08-05T01:52:01.739Z,5.20
2022-08-05T01:54:52.011Z,5.00
2022-08-05T01:58:11.160Z,5.40
2022-08-05T02:00:20.539Z,5.40
2022-08-05T02:03:07.099Z,5.50
2022-08-05T02:06:01.029Z,4.20
2022-08-05T02:08:40.818Z,5.00
2022-08-05T02:11:32.840Z,5.00
2022-08-05T02:14:12.928Z,5.40
2022-08-05T02:16:52.172Z,5.60
2022-08-05T02:19:34.408Z,4.90
2022-08-05T02:22:25.351Z,5.30
2022-08-05T02:25:04.384Z,5.30
2022-08-05T02:27:59.050Z,5.30
2022-08-05T02:30:37.216Z,6.00
2022-08-05T02:33:24.590Z,6.30
2022-08-05T02:36:13.771Z,5.40
2022-08-05T02:38:53.126Z,6.20
2022-08-05T02:41:28.909Z,5.90
2022-08-05T02:44:14.269Z,6.40
2022-08-05T02:46:58.540Z,6.30
2022-08-05T02:49:37.952Z,5.80
2022-08-05T02:52:29.416Z,5.40
2022-08-05T02:55:05.595Z,6.10
2022-08-05T02:58:19.949Z,6.00
2022-08-05T03:00:34.017Z,5.20
2022-08-05T03:03:10.138Z,5.10
2022-08-05T03:06:54.363Z,6.10
2022-08-05T03:08:32.295Z,6.00
2022-08-05T03:11:57.301Z,6.70
2022-08-05T03:14:02.715Z,6.60
2022-08-05T03:16:36.042Z,7.00
2022-08-05T03:19:12.650Z,6.70
2022-08-05T03:21:49.418Z,6.20
2022-08-05T03:24:30.200Z,6.90
2022-08-05T03:27:01.415Z,6.50
2022-08-05T03:29:44.738Z,6.20
2022-08-05T03:32:31.158Z,6.00
2022-08-05T03:35:01.820Z,6.40
2022-08-05T03:37:46.131Z,7.30
2022-08-05T03:40:24.363Z,6.70
2022-08-05T03:43:58.893Z,6.60
2022-08-05T03:45:57.951Z,6.20
2022-08-05T03:48:29.447Z,6.30
2022-08-05T03:52:38.561Z,7.00
2022-08-05T03:55:52.848Z,6.50
2022-08-05T03:56:50.227Z,5.60
2022-08-05T03:59:26.417Z,6.20
2022-08-05T04:02:02.083Z,6.60
2022-08-05T04:04:35.418Z,6.70
2022-08-05T04:07:09.576Z,5.80
2022-08-05T04:09:53.526Z,5.20
2022-08-05T04:12:24.964Z,5.20
2022-08-05T04:14:57.578Z,5.20
2022-08-05T04:17:55.757Z,5.20
2022-08-05T04:20:23.323Z,5.40
2022-08-05T04:22:53.618Z,5.90
2022-08-05T04:25:57.446Z,5.10
2022-08-05T04:28:15.142Z,5.80
2022-08-05T04:30:48.107Z,6.30
2022-08-05T04:33:20.572Z,6.00
2022-08-05T04:36:38.173Z,5.70
2022-08-05T04:39:00.847Z,5.50
2022-08-05T04:41:37.874Z,5.40
2022-08-05T04:44:09.876Z,5.10
2022-08-05T04:46:40.218Z,5.20
2022-08-05T04:49:14.555Z,4.90
2022-08-05T04:51:45.739Z,5.20
2022-08-05T04:54:19.458Z,4.70
2022-08-05T04:56:49.537Z,4.90
2022-08-05T04:59:24.232Z,5.20
2022-08-05T05:02:37.225Z,4.90
2022-08-05T05:05:01.640Z,5.30
2022-08-05T05:07:36.409Z,4.70
2022-08-05T05:10:08.017Z,4.40
2022-08-05T05:12:38.179Z,4.60
2022-08-05T05:15:10.654Z,4.40
2022-08-05T05:17:56.485Z,4.00
2022-08-05T05:20:28.670Z,4.30
2022-08-05T05:23:03.114Z,4.20
2022-08-05T05:25:40.601Z,4.30
2022-08-05T05:28:12.097Z,3.90
2022-08-05T05:30:42.298Z,3.70
2022-08-05T05:33:17.074Z,4.20
2022-08-05T05:35:48.335Z,4.20
2022-08-05T05:38:22.889Z,3.50
2022-08-05T05:41:01.019Z,3.70
2022-08-05T05:43:58.071Z,4.10
2022-08-05T05:46:22.457Z,3.90
2022-08-05T05:48:55.478Z,4.00
2022-08-05T05:51:28.107Z,3.70
2022-08-05T05:53:59.961Z,4.20
2022-08-05T05:56:34.520Z,4.20
2022-08-05T05:59:08.223Z,4.50
2022-08-05T06:01:40.278Z,3.90
2022-08-05T06:04:12.945Z,4.00
2022-08-05T06:06:47.407Z,3.80
2022-08-05T06:09:27.458Z,3.60
2022-08-05T06:12:10.298Z,4.00
2022-08-05T06:14:44.271Z,3.20
2022-08-05T06:17:52.430Z,3.80
2022-08-05T06:20:06.657Z,4.00
2022-08-05T06:22:49.498Z,3.70
2022-08-05T06:25:25.064Z,3.60
2022-08-05T06:28:20.870Z,3.70
2022-08-05T06:30:51.857Z,4.00
2022-08-05T06:34:00.464Z,3.70
2022-08-05T06:36:13.184Z,4.10
2022-08-05T06:38:47.219Z,3.80
2022-08-05T06:41:17.738Z,4.10
2022-08-05T06:44:00.256Z,3.90
2022-08-05T06:46:32.338Z,3.90
2022-08-05T06:49:08.220Z,3.80
2022-08-05T06:51:40.806Z,3.90
2022-08-05T06:54:12.054Z,4.20
2022-08-05T06:57:58.179Z,4.60
2022-08-05T06:59:57.920Z,3.90
2022-08-05T07:02:28.376Z,3.90
2022-08-05T07:04:59.538Z,4.00
2022-08-05T07:07:35.429Z,3.70
2022-08-05T07:10:14.964Z,3.90
2022-08-05T07:13:04.896Z,3.70
2022-08-05T07:16:01.666Z,3.90
2022-08-05T07:18:34.938Z,3.70
2022-08-05T07:21:07.696Z,3.40
2022-08-05T07:23:40.639Z,3.70
2022-08-05T07:26:24.961Z,3.90
2022-08-05T07:28:56.257Z,3.90
2022-08-05T07:31:41.109Z,3.80
2022-08-05T07:34:26.238Z,3.40
2022-08-05T07:36:58.737Z,3.50
2022-08-05T07:40:25.952Z,3.80
2022-08-05T07:42:33.539Z,3.70
2022-08-05T07:45:09.364Z,3.70
2022-08-05T07:47:42.283Z,3.60
2022-08-05T07:50:16.666Z,3.00
2022-08-05T07:52:47.060Z,3.60
2022-08-05T07:55:44.150Z,3.30
2022-08-05T07:58:08.532Z,2.90
2022-08-05T08:00:48.057Z,3.30
2022-08-05T08:03:18.136Z,3.50
2022-08-05T08:05:52.137Z,3.30
2022-08-05T08:08:23.462Z,2.90
2022-08-05T08:10:59.502Z,3.80
2022-08-05T08:13:29.657Z,3.30
2022-08-05T08:16:34.694Z,3.50
2022-08-05T08:19:03.419Z,3.50
2022-08-05T08:21:36.738Z,4.10
2022-08-05T08:24:13.825Z,3.50
2022-08-05T08:26:44.665Z,3.80
2022-08-05T08:29:29.449Z,3.50
2022-08-05T08:32:05.737Z,3.10
2022-08-05T08:34:41.496Z,3.30
2022-08-05T08:37:12.578Z,3.20
2022-08-05T08:39:49.397Z,3.40
2022-08-05T08:42:33.936Z,3.50
2022-08-05T08:45:26.557Z,2.70
2022-08-05T08:48:22.324Z,3.00
2022-08-05T08:51:23.252Z,3.90
2022-08-05T08:53:47.936Z,3.30
2022-08-05T08:56:20.822Z,3.10
2022-08-05T08:58:59.151Z,3.80
2022-08-05T09:01:32.103Z,4.00
2022-08-05T09:04:02.816Z,3.80
2022-08-05T09:06:33.216Z,3.20
2022-08-05T09:09:07.258Z,4.70
2022-08-05T09:11:51.052Z,4.10
2022-08-05T09:14:57.153Z,3.80
2022-08-05T09:17:41.022Z,4.00
2022-08-05T09:20:11.022Z,4.20
2022-08-05T09:23:07.852Z,4.00
2022-08-05T09:26:02.798Z,4.70
2022-08-05T09:28:34.750Z,4.10
2022-08-05T09:31:43.427Z,4.10
2022-08-05T09:33:59.678Z,4.30
2022-08-05T09:36:45.791Z,4.90
2022-08-05T09:39:41.362Z,3.80
2022-08-05T09:42:24.092Z,4.30
2022-08-05T09:46:04.567Z,4.90
2022-08-05T09:47:57.480Z,4.40
2022-08-05T09:50:44.017Z,4.30
2022-08-05T09:53:25.828Z,4.70
2022-08-05T09:56:12.959Z,4.40
2022-08-05T09:58:59.017Z,3.90
2022-08-05T10:01:33.258Z,4.30
2022-08-05T10:04:10.229Z,4.80
2022-08-05T10:06:49.797Z,4.30
2022-08-05T10:09:30.230Z,4.30
2022-08-05T10:12:18.789Z,4.40
2022-08-05T10:15:23.143Z,4.40
2022-08-05T10:18:22.262Z,4.60
2022-08-05T10:20:54.462Z,4.70
2022-08-05T10:23:55.686Z,5.00
2022-08-05T10:26:17.058Z,4.40
2022-08-05T10:28:50.613Z,4.90
2022-08-05T10:32:55.862Z,4.50
2022-08-05T10:34:17.656Z,5.50
2022-08-05T10:36:48.816Z,4.60
2022-08-05T10:39:25.053Z,4.80
2022-08-05T10:42:18.616Z,4.90
2022-08-05T10:44:55.498Z,4.40
2022-08-05T10:50:33.260Z,4.70
2022-08-05T10:52:58.782Z,4.80
2022-08-05T10:55:32.890Z,4.70
2022-08-05T10:58:47.854Z,4.60
2022-08-05T11:01:28.381Z,4.60
2022-08-05T11:07:11.136Z,4.70
2022-08-05T11:09:47.046Z,4.70
2022-08-05T11:12:50.319Z,4.80
2022-08-05T11:15:23.060Z,4.70
2022-08-05T11:17:59.039Z,5.60
2022-08-05T11:20:41.629Z,4.50
2022-08-05T11:24:04.264Z,4.80
2022-08-05T11:26:28.732Z,4.60
2022-08-05T11:29:11.489Z,4.40
2022-08-05T11:31:54.300Z,4.70
2022-08-05T11:34:51.079Z,5.10
2022-08-05T11:38:28.358Z,4.60
2022-08-05T11:44:05.440Z,4.80
2022-08-05T11:47:10.257Z,5.00
2022-08-05T11:49:33.946Z,4.50
2022-08-05T11:52:08.658Z,4.60
2022-08-05T11:54:43.606Z,4.50
2022-08-05T11:57:30.668Z,5.00
2022-08-05T12:00:27.697Z,4.50
2022-08-05T12:03:15.311Z,4.80
2022-08-05T12:05:46.137Z,4.50
2022-08-05T12:08:20.137Z,5.00
2022-08-05T12:10:52.527Z,4.80
2022-08-05T12:13:47.430Z,4.50
2022-08-05T12:16:19.980Z,5.00
2022-08-05T12:21:30.421Z,4.50
2022-08-05T12:24:06.944Z,4.40
2022-08-05T12:26:39.777Z,4.80
2022-08-05T12:29:22.570Z,4.60
2022-08-05T12:31:56.820Z,4.70
2022-08-05T12:34:29.576Z,4.70
2022-08-05T12:37:10.297Z,4.20
2022-08-05T12:39:41.524Z,4.50
2022-08-05T12:42:17.500Z,4.40
2022-08-05T12:44:48.705Z,4.90
2022-08-05T12:47:30.672Z,4.50
2022-08-05T12:50:13.177Z,4.20
2022-08-05T12:52:59.900Z,4.60
2022-08-05T12:55:35.322Z,5.00
2022-08-05T12:58:49.930Z,4.10
2022-08-05T13:02:03.461Z,4.60
2022-08-05T13:03:48.899Z,4.70
2022-08-05T13:06:21.937Z,4.70
2022-08-05T13:08:52.981Z,4.80
2022-08-05T13:12:01.206Z,4.30
2022-08-05T13:14:36.004Z,4.60
2022-08-05T13:17:16.823Z,4.70
2022-08-05T13:20:06.218Z,4.80
2022-08-05T13:22:41.458Z,4.60
2022-08-05T13:25:19.242Z,4.70
2022-08-05T13:27:54.017Z,4.60
2022-08-05T13:30:36.805Z,4.40
2022-08-05T13:33:14.151Z,4.20
2022-08-05T13:35:51.248Z,4.20
2022-08-05T13:38:30.936Z,4.60
2022-08-05T13:41:07.209Z,4.30
2022-08-05T13:43:44.683Z,4.40
2022-08-05T13:49:15.181Z,4.70
2022-08-05T13:51:46.590Z,4.50
2022-08-05T13:54:21.086Z,4.30
2022-08-05T13:56:56.427Z,4.90
2022-08-05T13:59:30.628Z,4.70
2022-08-05T14:02:05.655Z,4.40
2022-08-05T14:04:55.980Z,4.30
2022-08-05T14:08:00.111Z,4.50
2022-08-05T14:10:28.077Z,4.50
2022-08-05T14:13:00.056Z,4.20
2022-08-05T14:16:08.602Z,4.90
2022-08-05T14:18:23.468Z,4.60
2022-08-05T14:20:55.655Z,4.70
2022-08-05T14:23:27.435Z,4.40
2022-08-05T14:26:04.970Z,5.00
2022-08-05T14:28:52.351Z,4.30
2022-08-05T14:31:54.565Z,4.90
2022-08-05T14:34:13.218Z,4.90
2022-08-05T14:36:43.739Z,4.70
2022-08-05T14:39:23.286Z,4.40
2022-08-05T14:42:15.963Z,4.60
2022-08-05T14:44:45.942Z,4.90
2022-08-05T14:47:16.304Z,4.70
2022-08-05T14:50:18.061Z,4.40
2022-08-05T14:52:56.945Z,5.20
2022-08-05T14:55:39.251Z,4.60
2022-08-05T14:58:14.026Z,4.80
2022-08-05T15:00:59.806Z,5.00
2022-08-05T15:03:34.066Z,4.60
2022-08-05T15:06:15.023Z,4.50
2022-08-05T15:08:59.752Z,4.80
2022-08-05T15:11:52.845Z,4.60
2022-08-05T15:14:35.794Z,4.30
2022-08-05T15:17:45.042Z,4.30
2022-08-05T15:20:04.937Z,4.80
2022-08-05T15:22:38.156Z,4.40
2022-08-05T15:25:11.829Z,4.20
2022-08-05T15:27:52.274Z,4.60
2022-08-05T15:30:23.176Z,4.50
2022-08-05T15:32:55.298Z,4.40
2022-08-05T15:35:36.092Z,4.80
2022-08-05T15:38:32.392Z,4.40
2022-08-05T15:41:20.066Z,4.70
2022-08-05T15:43:47.634Z,4.40
2022-08-05T15:46:20.341Z,4.90
2022-08-05T15:49:00.612Z,4.90
2022-08-05T15:52:09.823Z,4.30
2022-08-05T15:54:34.754Z,4.30
2022-08-05T15:57:09.468Z,4.60
2022-08-05T15:59:40.301Z,4.60
2022-08-05T16:02:14.889Z,4.80
2022-08-05T16:04:50.188Z,4.60
2022-08-05T16:07:21.217Z,4.40
2022-08-05T16:09:54.087Z,5.00
2022-08-05T16:12:24.474Z,4.00
2022-08-05T16:14:54.778Z,4.50
2022-08-05T16:17:25.497Z,4.30
2022-08-05T16:20:04.168Z,4.10
2022-08-05T16:22:37.025Z,5.10
2022-08-05T16:25:10.260Z,5.10
2022-08-05T16:28:00.316Z,4.50
2022-08-05T16:30:31.986Z,4.40
2022-08-05T16:33:03.738Z,4.70
2022-08-05T16:35:42.991Z,4.20
2022-08-05T16:38:24.670Z,4.30
2022-08-05T16:41:00.219Z,4.40
2022-08-05T16:43:33.631Z,5.00
2022-08-05T16:46:24.031Z,5.00
2022-08-05T16:48:55.781Z,4.70
2022-08-05T16:51:30.671Z,4.50
2022-08-05T16:54:17.138Z,5.30
2022-08-05T16:56:47.836Z,4.90
2022-08-05T16:59:22.499Z,5.20
2022-08-05T17:01:55.703Z,5.60
2022-08-05T17:04:28.632Z,4.90
2022-08-05T17:09:49.959Z,4.60
2022-08-05T17:12:50.651Z,4.50
2022-08-05T17:15:19.610Z,4.70
2022-08-05T17:17:55.126Z,4.30
2022-08-05T17:20:26.624Z,4.60
2022-08-05T17:22:57.582Z,4.30
2022-08-05T17:25:40.214Z,4.40
2022-08-05T17:28:11.098Z,4.80
2022-08-05T17:30:51.771Z,4.60
2022-08-05T17:33:23.056Z,4.70
2022-08-05T17:36:09.394Z,4.40
2022-08-05T17:38:43.816Z,4.40
2022-08-05T17:42:16.705Z,4.50
2022-08-05T17:44:05.418Z,5.30
2022-08-05T17:46:41.617Z,4.70
2022-08-05T17:49:15.580Z,5.90
2022-08-05T17:51:46.102Z,8.70
2022-08-05T17:54:23.362Z,8.20
2022-08-05T17:56:54.061Z,7.30
2022-08-05T17:59:25.378Z,13.20
2022-08-05T18:01:56.139Z,14.40
2022-08-05T18:04:29.979Z,15.00
2022-08-05T18:07:02.856Z,11.50
2022-08-05T18:09:59.161Z,11.20
2022-08-05T18:12:24.728Z,15.10
2022-08-05T18:14:55.097Z,15.30
2022-08-05T18:18:00.710Z,15.40
2022-08-05T18:20:15.458Z,14.70
2022-08-05T18:22:54.550Z,15.70
2022-08-05T18:25:25.474Z,17.30
2022-08-05T18:28:04.925Z,15.00
2022-08-05T18:30:35.983Z,16.00
2022-08-05T18:33:13.506Z,15.00
2022-08-05T18:36:00.723Z,15.10
2022-08-05T18:38:38.499Z,16.50
2022-08-05T18:41:56.853Z,17.00
2022-08-05T18:44:05.510Z,11.70
2022-08-05T18:46:37.430Z,11.80
2022-08-05T18:49:30.345Z,8.30
2022-08-05T18:52:33.213Z,7.60
2022-08-05T18:55:10.405Z,6.60
2022-08-05T18:57:43.544Z,7.30
2022-08-05T19:00:27.247Z,6.90
2022-08-05T19:03:03.671Z,6.70
2022-08-05T19:06:11.210Z,6.10
2022-08-05T19:08:30.245Z,5.50
2022-08-05T19:11:02.836Z,5.60
2022-08-05T19:13:35.854Z,5.80
2022-08-05T19:16:24.878Z,5.90
2022-08-05T19:18:59.501Z,5.40
2022-08-05T19:21:34.344Z,5.50
2022-08-05T19:24:12.981Z,5.70
2022-08-05T19:26:54.871Z,5.30
2022-08-05T19:29:35.938Z,5.60
2022-08-05T19:32:11.649Z,6.00
2022-08-05T19:34:55.011Z,5.40
2022-08-05T19:37:29.862Z,5.40
2022-08-05T19:40:17.880Z,5.60
2022-08-05T19:43:04.449Z,6.10
2022-08-05T19:45:37.171Z,5.80
2022-08-05T19:48:14.399Z,5.50
2022-08-05T19:50:45.658Z,6.10
2022-08-05T19:53:15.903Z,6.00
2022-08-05T19:56:14.579Z,5.90
2022-08-05T19:58:53.940Z,6.10
2022-08-05T20:01:28.568Z,5.70
2022-08-05T20:04:00.064Z,6.60
2022-08-05T20:06:37.811Z,5.70
2022-08-05T20:09:16.945Z,5.90
2022-08-05T20:11:48.446Z,6.50
2022-08-05T20:14:26.832Z,6.50
2022-08-05T20:16:58.900Z,6.90
2022-08-05T20:19:35.926Z,6.20
2022-08-05T20:22:09.533Z,6.40
2022-08-05T20:24:39.897Z,6.80
2022-08-05T20:27:11.721Z,6.70
2022-08-05T20:29:42.175Z,6.30
2022-08-05T20:32:28.685Z,6.90
2022-08-05T20:34:58.860Z,6.40
2022-08-05T20:38:06.227Z,5.80
2022-08-05T20:40:20.862Z,6.70
2022-08-05T20:42:51.787Z,6.00
2022-08-05T20:45:22.937Z,6.70
2022-08-05T20:48:16.647Z,6.20
2022-08-05T20:50:47.060Z,6.20
2022-08-05T20:53:36.921Z,5.80
2022-08-05T20:56:11.138Z,5.80
2022-08-05T20:58:43.256Z,6.20
2022-08-05T21:01:13.701Z,5.90
2022-08-05T21:03:47.947Z,5.80
2022-08-05T21:06:28.610Z,6.00
2022-08-05T21:09:00.949Z,5.50
2022-08-05T21:12:10.623Z,5.40
2022-08-05T21:14:22.459Z,5.50
2022-08-05T21:16:57.020Z,6.30
2022-08-05T21:19:27.339Z,5.80
2022-08-05T21:21:58.628Z,5.50
2022-08-05T21:24:29.341Z,5.60
2022-08-05T21:27:00.858Z,6.30
2022-08-05T21:29:32.539Z,5.90
2022-08-05T21:32:11.264Z,5.80
2022-08-05T21:35:08.958Z,6.40
2022-08-05T21:37:41.257Z,6.60
2022-08-05T21:40:14.299Z,7.00
2022-08-05T21:42:47.772Z,5.90
2022-08-05T21:45:24.941Z,6.10
2022-08-05T21:48:08.667Z,6.20
2022-08-05T21:50:39.178Z,6.20
2022-08-05T21:53:16.690Z,6.20
2022-08-05T21:56:06.440Z,6.30
2022-08-05T21:58:42.005Z,6.20
2022-08-05T22:01:13.100Z,5.90
2022-08-05T22:03:54.434Z,5.80
2022-08-05T22:06:34.744Z,6.40
2022-08-05T22:09:13.657Z,5.90
2022-08-05T22:11:51.658Z,7.20
2022-08-05T22:14:37.195Z,6.80
2022-08-05T22:20:01.069Z,6.00
2022-08-05T22:22:28.951Z,6.50
2022-08-05T22:25:27.258Z,6.20
2022-08-05T22:28:09.151Z,6.20
2022-08-05T22:30:44.344Z,6.70
2022-08-05T22:33:55.636Z,5.60
2022-08-05T22:36:18.297Z,6.10
2022-08-05T22:38:49.420Z,6.10
2022-08-05T22:42:04.692Z,5.90
2022-08-05T22:44:12.108Z,6.40
2022-08-05T22:46:42.940Z,5.50
2022-08-05T22:50:17.984Z,6.00
2022-08-05T22:52:15.431Z,5.90
2022-08-05T22:54:53.376Z,6.40
2022-08-05T22:57:24.180Z,6.20
2022-08-05T22:59:56.939Z,6.20
2022-08-05T23:02:29.690Z,6.40
2022-08-05T23:07:32.432Z,5.70
2022-08-05T23:10:07.256Z,5.60
2022-08-05T23:12:38.216Z,6.40
2022-08-05T23:15:11.866Z,5.70
2022-08-05T23:18:00.585Z,5.30
2022-08-05T23:20:37.352Z,6.50
2022-08-05T23:23:08.977Z,6.40
2022-08-05T23:25:52.817Z,6.30
2022-08-05T23:28:27.655Z,6.10
2022-08-05T23:31:15.787Z,5.80
2022-08-05T23:34:04.307Z,6.20
2022-08-05T23:36:38.731Z,6.90
2022-08-05T23:39:17.660Z,6.20
2022-08-05T23:42:02.498Z,6.20
2022-08-05T23:44:33.073Z,6.70
2022-08-05T23:47:14.983Z,7.10
2022-08-05T23:49:46.625Z,6.80
2022-08-05T23:52:35.777Z,7.00
2022-08-05T23:55:10.301Z,6.70
2022-08-05T23:57:41.178Z,6.80
